createdAt,value
2018-05-27T00:01:47.699Z,80.70
2018-05-27T00:04:15.226Z,81.18
2018-05-27T00:06:43.402Z,81.41
2018-05-27T00:09:10.930Z,81.99
2018-05-27T00:11:38.502Z,81.79
2018-05-27T00:14:06.053Z,82.17
2018-05-27T00:16:33.610Z,81.28
2018-05-27T00:19:01.162Z,82.58
2018-05-27T00:21:28.770Z,81.31
2018-05-27T00:23:56.299Z,80.72
2018-05-27T00:26:23.839Z,80.40
2018-05-27T00:28:51.554Z,81.87
2018-05-27T00:31:19.110Z,80.92
2018-05-27T00:33:46.747Z,81.17
2018-05-27T00:36:14.339Z,81.39
2018-05-27T00:38:41.904Z,80.72
2018-05-27T00:41:09.430Z,80.38
2018-05-27T00:43:36.982Z,81.58
2018-05-27T00:46:04.527Z,82.02
2018-05-27T00:48:32.086Z,81.67
2018-05-27T00:50:59.632Z,81.88
2018-05-27T00:53:39.027Z,82.19
2018-05-27T00:56:06.594Z,83.23
2018-05-27T00:58:34.246Z,82.50
2018-05-27T01:01:01.806Z,82.64
2018-05-27T01:03:29.473Z,83.00
2018-05-27T01:05:57.001Z,83.24
2018-05-27T01:08:24.582Z,82.92
2018-05-27T01:10:52.144Z,83.69
2018-05-27T01:13:19.697Z,83.45
2018-05-27T01:15:47.250Z,83.59
2018-05-27T01:18:14.810Z,84.59
2018-05-27T01:20:42.389Z,83.86
2018-05-27T01:23:09.944Z,84.50
2018-05-27T01:25:37.466Z,84.26
2018-05-27T01:28:05.062Z,85.03
2018-05-27T01:30:32.622Z,85.14
2018-05-27T01:33:00.292Z,84.90
2018-05-27T01:35:27.825Z,85.44
2018-05-27T01:37:55.431Z,85.94
2018-05-27T01:40:23.029Z,84.47
2018-05-27T01:42:50.585Z,85.17
2018-05-27T01:45:18.183Z,85.92
2018-05-27T01:47:45.859Z,85.36
2018-05-27T01:50:13.389Z,85.42
2018-05-27T01:52:40.962Z,86.79
2018-05-27T01:55:08.485Z,86.37
2018-05-27T01:57:36.054Z,85.05
2018-05-27T02:00:03.650Z,85.42
2018-05-27T02:02:31.303Z,85.98
2018-05-27T02:04:58.865Z,86.39
2018-05-27T02:07:26.406Z,85.86
2018-05-27T02:09:53.985Z,85.78
2018-05-27T02:12:21.541Z,86.03
2018-05-27T02:14:49.110Z,85.71
2018-05-27T02:17:16.637Z,86.14
2018-05-27T02:19:45.019Z,86.39
2018-05-27T02:22:12.569Z,86.76
2018-05-27T02:24:40.170Z,86.14
2018-05-27T02:27:07.717Z,85.58
2018-05-27T02:29:35.278Z,85.78
2018-05-27T02:32:02.828Z,85.97
2018-05-27T02:34:30.503Z,85.82
2018-05-27T02:36:58.055Z,86.67
2018-05-27T02:39:25.720Z,87.07
2018-05-27T02:41:53.258Z,86.35
2018-05-27T02:44:20.810Z,86.69
2018-05-27T02:46:48.332Z,86.56
2018-05-27T02:49:15.966Z,86.58
2018-05-27T02:51:43.619Z,88.25
2018-05-27T02:54:11.486Z,87.72
2018-05-27T02:56:39.044Z,89.52
2018-05-27T02:59:06.602Z,88.08
2018-05-27T03:01:34.177Z,87.42
2018-05-27T03:04:01.753Z,88.95
2018-05-27T03:06:29.286Z,88.43
2018-05-27T03:08:56.858Z,88.27
2018-05-27T03:11:24.391Z,87.86
2018-05-27T03:13:51.967Z,88.10
2018-05-27T03:16:19.517Z,87.24
2018-05-27T03:18:47.192Z,88.10
2018-05-27T03:21:16.242Z,87.50
2018-05-27T03:23:43.814Z,87.70
2018-05-27T03:26:11.399Z,86.40
2018-05-27T03:28:38.973Z,87.41
2018-05-27T03:31:06.508Z,86.69
2018-05-27T03:33:34.103Z,87.78
2018-05-27T03:36:01.625Z,88.02
2018-05-27T03:38:29.311Z,88.70
2018-05-27T03:40:56.877Z,87.75
2018-05-27T03:43:24.416Z,88.87
2018-05-27T03:45:52.077Z,88.24
2018-05-27T03:48:19.637Z,88.06
2018-05-27T03:50:47.195Z,88.34
2018-05-27T03:53:14.721Z,87.52
2018-05-27T03:55:42.328Z,88.62
2018-05-27T03:58:09.854Z,88.45
2018-05-27T04:00:37.430Z,90.25
2018-05-27T04:03:04.995Z,91.33
2018-05-27T04:05:44.557Z,90.54
2018-05-27T04:08:23.946Z,90.66
2018-05-27T04:10:51.514Z,90.73
2018-05-27T04:13:19.093Z,90.52
2018-05-27T04:15:46.754Z,90.79
2018-05-27T04:18:14.292Z,89.60
2018-05-27T04:20:41.973Z,89.25
2018-05-27T04:23:09.544Z,88.89
2018-05-27T04:25:37.130Z,88.94
2018-05-27T04:28:04.653Z,90.34
2018-05-27T04:30:32.229Z,89.37
2018-05-27T04:32:59.770Z,89.13
2018-05-27T04:35:27.432Z,88.06
2018-05-27T04:37:54.961Z,87.34
2018-05-27T04:40:22.563Z,88.31
2018-05-27T04:42:50.089Z,87.94
2018-05-27T04:45:17.670Z,88.21
2018-05-27T04:47:45.194Z,86.16
2018-05-27T04:50:12.788Z,86.63
2018-05-27T04:52:40.347Z,86.50
2018-05-27T04:55:08.020Z,86.87
2018-05-27T04:57:35.579Z,86.48
2018-05-27T05:00:03.232Z,84.89
2018-05-27T05:02:30.792Z,84.49
2018-05-27T05:04:58.362Z,84.38
2018-05-27T05:07:25.880Z,83.78
2018-05-27T05:09:53.467Z,82.77
2018-05-27T05:12:20.989Z,83.54
2018-05-27T05:14:48.610Z,84.17
2018-05-27T05:17:16.967Z,83.39
2018-05-27T05:19:44.511Z,83.47
2018-05-27T05:22:12.096Z,81.62
2018-05-27T05:24:39.650Z,81.46
2018-05-27T05:27:07.202Z,80.92
2018-05-27T05:29:34.754Z,80.25
2018-05-27T05:32:02.408Z,80.42
2018-05-27T05:34:29.933Z,80.49
2018-05-27T05:36:57.512Z,80.93
2018-05-27T05:39:25.059Z,81.46
2018-05-27T05:41:52.642Z,80.66
2018-05-27T05:44:20.164Z,80.72
2018-05-27T05:46:47.742Z,80.64
2018-05-27T05:49:15.370Z,81.49
2018-05-27T05:51:42.924Z,81.06
2018-05-27T05:54:10.574Z,79.80
2018-05-27T05:56:38.126Z,79.24
2018-05-27T05:59:06.128Z,78.85
2018-05-27T06:01:36.432Z,77.39
2018-05-27T06:04:04.287Z,76.99
2018-05-27T06:06:31.945Z,77.06
2018-05-27T06:08:59.457Z,76.33
2018-05-27T06:11:27.064Z,75.51
2018-05-27T06:13:54.594Z,74.76
2018-05-27T06:16:22.174Z,73.99
2018-05-27T06:18:49.753Z,73.78
2018-05-27T06:21:17.325Z,73.20
2018-05-27T06:23:44.911Z,72.74
2018-05-27T06:26:12.455Z,73.87
2018-05-27T06:28:40.006Z,73.39
2018-05-27T06:31:07.653Z,74.32
2018-05-27T06:33:35.313Z,74.32
2018-05-27T06:36:02.841Z,75.66
2018-05-27T06:38:30.387Z,75.24
2018-05-27T06:40:58.445Z,74.90
2018-05-27T06:43:26.069Z,74.76
2018-05-27T06:45:53.724Z,75.21
2018-05-27T06:48:21.293Z,74.13
2018-05-27T06:50:48.834Z,73.68
2018-05-27T06:53:17.324Z,73.52
2018-05-27T06:55:44.882Z,73.65
2018-05-27T06:58:14.737Z,74.01
2018-05-27T07:00:42.503Z,74.34
2018-05-27T07:03:12.859Z,74.73
2018-05-27T07:05:41.154Z,75.16
2018-05-27T07:08:08.719Z,77.10
2018-05-27T07:10:36.344Z,78.25
2018-05-27T07:13:05.495Z,79.04
2018-05-27T07:15:34.099Z,80.66
2018-05-27T07:18:01.801Z,81.39
2018-05-27T07:20:29.478Z,80.79
2018-05-27T07:22:58.374Z,80.18
2018-05-27T07:25:26.351Z,79.00
2018-05-27T07:27:54.515Z,79.43
2018-05-27T07:30:22.033Z,80.99
2018-05-27T07:32:54.332Z,79.91
2018-05-27T07:35:22.221Z,78.10
2018-05-27T07:37:50.041Z,77.08
2018-05-27T07:40:19.521Z,80.57
2018-05-27T07:42:48.164Z,77.62
2018-05-27T07:45:17.375Z,77.40
2018-05-27T07:47:48.582Z,76.93
2018-05-27T07:50:16.557Z,76.20
2018-05-27T07:52:47.697Z,75.69
2018-05-27T07:55:17.053Z,73.49
2018-05-27T07:57:49.081Z,72.07
2018-05-27T08:00:26.333Z,74.56
2018-05-27T08:02:58.971Z,73.97
2018-05-27T08:05:28.967Z,72.98
2018-05-27T08:07:56.528Z,74.30
2018-05-27T08:10:24.099Z,72.88
2018-05-27T08:12:51.752Z,72.86
2018-05-27T08:15:19.475Z,74.89
2018-05-27T08:17:47.973Z,72.20
2018-05-27T08:20:15.650Z,71.56
2018-05-27T08:22:43.234Z,71.31
2018-05-27T08:25:13.228Z,72.01
2018-05-27T08:27:41.018Z,71.62
2018-05-27T08:30:08.663Z,73.21
2018-05-27T08:32:36.189Z,73.00
2018-05-27T08:35:03.747Z,72.67
2018-05-27T08:37:31.334Z,71.77
2018-05-27T08:39:58.898Z,71.05
2018-05-27T08:42:26.453Z,72.16
2018-05-27T08:44:54.026Z,71.02
2018-05-27T08:47:21.556Z,70.22
2018-05-27T08:49:49.131Z,72.82
2018-05-27T08:52:16.691Z,70.95
2018-05-27T08:54:44.259Z,71.08
2018-05-27T08:57:11.791Z,70.96
2018-05-27T08:59:39.338Z,71.28
2018-05-27T09:02:09.434Z,70.74
2018-05-27T09:04:37.252Z,72.40
2018-05-27T09:07:04.821Z,70.98
2018-05-27T09:09:32.442Z,69.80
2018-05-27T09:11:59.972Z,69.69
2018-05-27T09:14:27.605Z,70.15
2018-05-27T09:16:55.155Z,70.55
2018-05-27T09:19:22.711Z,69.81
2018-05-27T09:21:50.931Z,68.55
2018-05-27T09:24:18.660Z,68.12
2018-05-27T09:26:46.214Z,67.89
2018-05-27T09:29:13.788Z,66.15
2018-05-27T09:31:41.430Z,67.86
2018-05-27T09:34:08.994Z,68.24
2018-05-27T09:36:36.521Z,67.87
2018-05-27T09:39:04.117Z,66.14
2018-05-27T09:41:31.675Z,66.82
2018-05-27T09:43:59.554Z,68.60
2018-05-27T09:46:27.498Z,66.25
2018-05-27T09:48:55.178Z,66.75
2018-05-27T09:51:23.041Z,65.82
2018-05-27T09:53:50.605Z,64.72
2018-05-27T09:56:18.254Z,66.36
2018-05-27T09:58:45.813Z,63.61
2018-05-27T10:01:13.970Z,63.10
2018-05-27T10:03:45.237Z,64.30
2018-05-27T10:06:21.372Z,63.36
2018-05-27T10:08:49.277Z,65.76
2018-05-27T10:11:16.923Z,64.53
2018-05-27T10:13:44.457Z,63.47
2018-05-27T10:16:12.050Z,64.12
2018-05-27T10:18:39.583Z,64.18
2018-05-27T10:21:07.159Z,62.15
2018-05-27T10:23:34.717Z,63.89
2018-05-27T10:26:02.463Z,62.97
2018-05-27T10:28:31.577Z,61.42
2018-05-27T10:30:59.241Z,61.98
2018-05-27T10:33:26.797Z,60.95
2018-05-27T10:35:54.350Z,61.13
2018-05-27T10:38:23.228Z,61.09
2018-05-27T10:40:50.778Z,59.16
2018-05-27T10:43:18.881Z,59.83
2018-05-27T10:45:47.055Z,60.93
2018-05-27T10:48:14.583Z,64.31
2018-05-27T10:50:42.176Z,63.01
2018-05-27T10:53:09.740Z,59.62
2018-05-27T10:55:37.294Z,60.91
2018-05-27T10:58:04.850Z,58.79
2018-05-27T11:00:32.395Z,58.53
2018-05-27T11:02:59.927Z,58.37
2018-05-27T11:05:27.532Z,58.21
2018-05-27T11:07:55.550Z,58.35
2018-05-27T11:10:23.110Z,58.38
2018-05-27T11:12:51.654Z,57.13
2018-05-27T11:15:19.287Z,58.95
2018-05-27T11:17:46.864Z,58.69
2018-05-27T11:20:14.629Z,58.03
2018-05-27T11:22:42.163Z,57.86
2018-05-27T11:25:09.751Z,57.50
2018-05-27T11:27:37.304Z,59.43
2018-05-27T11:30:04.977Z,58.02
2018-05-27T11:32:32.582Z,58.35
2018-05-27T11:35:00.191Z,58.10
2018-05-27T11:37:27.701Z,59.17
2018-05-27T11:39:55.307Z,58.77
2018-05-27T11:42:22.864Z,58.29
2018-05-27T11:44:50.436Z,58.62
2018-05-27T11:47:18.638Z,58.63
2018-05-27T11:49:46.678Z,58.27
2018-05-27T11:52:14.807Z,56.57
2018-05-27T11:54:42.408Z,60.57
2018-05-27T11:57:10.065Z,57.02
2018-05-27T11:59:38.183Z,55.42
2018-05-27T12:02:05.801Z,56.40
2018-05-27T12:04:33.618Z,55.74
2018-05-27T12:07:01.655Z,57.00
2018-05-27T12:09:29.289Z,56.44
2018-05-27T12:11:56.805Z,55.27
2018-05-27T12:14:24.536Z,54.47
2018-05-27T12:16:52.179Z,53.47
2018-05-27T12:19:19.726Z,54.06
2018-05-27T12:21:47.290Z,54.27
2018-05-27T12:24:15.778Z,55.43
2018-05-27T12:26:43.438Z,55.94
2018-05-27T12:29:10.978Z,57.33
2018-05-27T12:31:38.552Z,56.94
2018-05-27T12:34:06.127Z,53.85
2018-05-27T12:36:33.702Z,53.28
2018-05-27T12:39:01.235Z,56.11
2018-05-27T12:41:28.809Z,56.93
2018-05-27T12:43:56.356Z,52.68
2018-05-27T12:46:24.132Z,51.26
2018-05-27T12:48:52.191Z,51.58
2018-05-27T12:51:19.742Z,51.70
2018-05-27T12:53:47.309Z,52.48
2018-05-27T12:56:14.869Z,53.10
2018-05-27T12:58:42.430Z,52.81
2018-05-27T13:01:10.103Z,50.82
2018-05-27T13:03:37.704Z,54.17
2018-05-27T13:06:05.539Z,53.03
2018-05-27T13:08:34.261Z,54.38
2018-05-27T13:11:01.966Z,53.31
2018-05-27T13:13:29.628Z,54.17
2018-05-27T13:15:57.318Z,54.13
2018-05-27T13:18:24.963Z,53.23
2018-05-27T13:20:52.584Z,52.79
2018-05-27T13:23:20.516Z,52.90
2018-05-27T13:25:49.921Z,54.33
2018-05-27T13:28:17.474Z,55.19
2018-05-27T13:30:45.037Z,54.73
2018-05-27T13:33:12.600Z,53.66
2018-05-27T13:35:40.204Z,53.40
2018-05-27T13:38:08.585Z,50.90
2018-05-27T13:40:36.664Z,50.47
2018-05-27T13:43:04.213Z,50.28
2018-05-27T13:45:31.738Z,52.17
2018-05-27T13:47:59.345Z,50.89
2018-05-27T13:50:27.022Z,53.06
2018-05-27T13:52:54.591Z,53.59
2018-05-27T13:55:22.151Z,53.29
2018-05-27T13:57:50.148Z,51.38
2018-05-27T14:00:17.722Z,48.09
2018-05-27T14:02:45.303Z,48.58
2018-05-27T14:05:12.881Z,50.27
2018-05-27T14:07:40.453Z,51.20
2018-05-27T14:10:08.149Z,48.89
2018-05-27T14:12:35.718Z,49.38
2018-05-27T14:15:03.329Z,48.44
2018-05-27T14:17:30.986Z,49.47
2018-05-27T14:19:58.545Z,48.25
2018-05-27T14:22:26.104Z,49.40
2018-05-27T14:24:53.627Z,46.62
2018-05-27T14:27:21.255Z,45.23
2018-05-27T14:29:48.780Z,44.96
2018-05-27T14:32:16.446Z,48.17
2018-05-27T14:34:44.004Z,49.13
2018-05-27T14:37:11.559Z,47.69
2018-05-27T14:39:39.085Z,48.36
2018-05-27T14:42:06.692Z,47.10
2018-05-27T14:44:34.221Z,47.56
2018-05-27T14:47:01.799Z,46.60
2018-05-27T14:49:29.361Z,49.16
2018-05-27T14:51:56.897Z,48.87
2018-05-27T14:54:24.478Z,48.77
2018-05-27T14:56:52.046Z,47.45
2018-05-27T14:59:20.476Z,48.21
2018-05-27T15:01:48.080Z,47.02
2018-05-27T15:04:17.355Z,48.54
2018-05-27T15:06:45.463Z,47.71
2018-05-27T15:09:13.985Z,51.53
2018-05-27T15:11:41.593Z,48.47
2018-05-27T15:14:09.230Z,45.23
2018-05-27T15:16:36.821Z,49.83
2018-05-27T15:19:04.476Z,47.20
2018-05-27T15:21:32.035Z,45.77
2018-05-27T15:24:01.632Z,45.95
2018-05-27T15:26:29.203Z,46.24
2018-05-27T15:28:57.382Z,46.75
2018-05-27T15:31:25.376Z,46.06
2018-05-27T15:33:53.051Z,47.13
2018-05-27T15:36:21.590Z,49.26
2018-05-27T15:38:49.149Z,46.64
2018-05-27T15:41:16.665Z,48.14
2018-05-27T15:43:44.218Z,44.22
2018-05-27T15:46:11.820Z,43.81
2018-05-27T15:48:39.369Z,44.16
2018-05-27T15:51:06.952Z,44.01
2018-05-27T15:53:34.526Z,40.66
2018-05-27T15:56:02.065Z,41.27
2018-05-27T15:58:30.363Z,41.21
2018-05-27T16:00:58.020Z,41.25
2018-05-27T16:03:25.588Z,41.57
2018-05-27T16:05:53.531Z,41.06
2018-05-27T16:08:21.138Z,42.39
2018-05-27T16:10:50.270Z,39.80
2018-05-27T16:13:19.388Z,41.82
2018-05-27T16:15:46.992Z,42.93
2018-05-27T16:18:14.534Z,43.45
2018-05-27T16:20:42.160Z,43.73
2018-05-27T16:23:10.751Z,46.28
2018-05-27T16:25:38.575Z,43.92
2018-05-27T16:28:06.179Z,43.31
2018-05-27T16:30:33.836Z,43.42
2018-05-27T16:33:01.498Z,43.83
2018-05-27T16:35:29.056Z,44.84
2018-05-27T16:37:56.614Z,45.10
2018-05-27T16:40:24.142Z,46.62
2018-05-27T16:42:51.746Z,45.29
2018-05-27T16:45:19.398Z,45.88
2018-05-27T16:47:47.366Z,46.16
2018-05-27T16:50:15.027Z,45.65
2018-05-27T16:52:42.562Z,48.29
2018-05-27T16:55:10.122Z,48.37
2018-05-27T16:57:37.707Z,48.46
2018-05-27T17:00:05.353Z,50.13
2018-05-27T17:02:32.926Z,51.76
2018-05-27T17:05:00.485Z,51.24
2018-05-27T17:07:28.044Z,50.14
2018-05-27T17:09:55.612Z,50.60
2018-05-27T17:12:24.200Z,49.20
2018-05-27T17:14:51.770Z,48.44
2018-05-27T17:17:19.297Z,47.92
2018-05-27T17:19:46.849Z,47.99
2018-05-27T17:22:14.357Z,48.02
2018-05-27T17:24:41.897Z,49.07
2018-05-27T17:27:09.432Z,48.73
2018-05-27T17:29:36.983Z,49.19
2018-05-27T17:32:04.515Z,48.30
2018-05-27T17:34:32.091Z,48.55
2018-05-27T17:36:59.617Z,48.54
2018-05-27T17:39:27.166Z,49.12
2018-05-27T17:41:54.845Z,48.90
2018-05-27T17:44:22.413Z,50.38
2018-05-27T17:46:50.021Z,51.08
2018-05-27T17:49:17.578Z,50.90
2018-05-27T17:51:45.148Z,51.81
2018-05-27T17:54:12.729Z,52.93
2018-05-27T17:56:40.362Z,52.56
2018-05-27T17:59:08.022Z,52.43
2018-05-27T18:01:35.540Z,52.97
2018-05-27T18:04:03.139Z,52.38
2018-05-27T18:06:30.665Z,53.14
2018-05-27T18:08:58.222Z,53.35
2018-05-27T18:11:25.830Z,53.56
2018-05-27T18:13:53.376Z,54.86
2018-05-27T18:16:20.936Z,56.26
2018-05-27T18:18:48.478Z,56.99
2018-05-27T18:21:16.158Z,57.07
2018-05-27T18:23:44.422Z,58.10
2018-05-27T18:26:12.101Z,58.32
2018-05-27T18:28:39.666Z,57.91
2018-05-27T18:31:07.340Z,58.70
2018-05-27T18:33:34.979Z,58.00
2018-05-27T18:36:02.645Z,59.92
2018-05-27T18:38:40.447Z,63.66
2018-05-27T18:41:23.769Z,63.99
2018-05-27T18:43:56.100Z,64.00
2018-05-27T18:46:23.820Z,62.66
2018-05-27T18:48:51.352Z,60.80
2018-05-27T18:51:18.972Z,61.45
2018-05-27T18:53:46.480Z,62.17
2018-05-27T18:56:14.035Z,62.27
2018-05-27T18:58:41.562Z,61.87
2018-05-27T19:01:09.122Z,62.58
2018-05-27T19:03:36.667Z,62.58
2018-05-27T19:06:04.213Z,61.53
2018-05-27T19:08:31.745Z,62.85
2018-05-27T19:10:59.298Z,65.63
2018-05-27T19:13:26.852Z,65.10
2018-05-27T19:15:54.421Z,65.34
2018-05-27T19:18:21.979Z,64.20
2018-05-27T19:20:49.536Z,64.44
2018-05-27T19:23:17.082Z,65.30
2018-05-27T19:25:44.636Z,67.48
2018-05-27T19:28:12.209Z,67.59
2018-05-27T19:30:39.764Z,66.79
2018-05-27T19:33:07.340Z,66.32
2018-05-27T19:35:34.897Z,66.65
2018-05-27T19:38:03.676Z,67.05
2018-05-27T19:40:31.565Z,67.08
2018-05-27T19:42:59.100Z,68.15
2018-05-27T19:45:26.661Z,68.47
2018-05-27T19:47:54.221Z,67.95
2018-05-27T19:50:21.781Z,67.86
2018-05-27T19:52:49.338Z,67.90
2018-05-27T19:55:16.881Z,67.83
2018-05-27T19:57:44.467Z,68.49
2018-05-27T20:00:12.461Z,69.21
2018-05-27T20:02:40.075Z,71.88
2018-05-27T20:05:07.751Z,72.01
2018-05-27T20:07:35.271Z,70.83
2018-05-27T20:10:02.856Z,71.36
2018-05-27T20:12:30.432Z,71.76
2018-05-27T20:14:59.061Z,71.13
2018-05-27T20:17:26.633Z,69.65
2018-05-27T20:19:54.181Z,69.30
2018-05-27T20:22:21.793Z,72.41
2018-05-27T20:24:49.352Z,73.09
2018-05-27T20:27:17.015Z,73.77
2018-05-27T20:29:44.541Z,72.75
2018-05-27T20:32:12.144Z,73.66
2018-05-27T20:34:39.661Z,72.00
2018-05-27T20:37:07.213Z,70.23
2018-05-27T20:39:35.121Z,70.27
2018-05-27T20:42:02.725Z,71.24
2018-05-27T20:44:30.261Z,69.81
2018-05-27T20:47:01.136Z,69.15
2018-05-27T20:49:32.246Z,69.50
2018-05-27T20:52:00.791Z,69.57
2018-05-27T20:54:28.365Z,68.62
2018-05-27T20:56:55.976Z,68.95
2018-05-27T20:59:23.533Z,71.73
2018-05-27T21:01:51.141Z,74.96
2018-05-27T21:04:19.121Z,74.92
2018-05-27T21:06:46.975Z,73.88
2018-05-27T21:09:15.002Z,73.46
2018-05-27T21:11:43.596Z,73.86
2018-05-27T21:14:11.190Z,74.73
2018-05-27T21:16:38.758Z,75.78
2018-05-27T21:19:06.985Z,75.27
2018-05-27T21:21:34.538Z,75.63
2018-05-27T21:24:02.065Z,74.08
2018-05-27T21:26:30.538Z,75.37
2018-05-27T21:28:58.287Z,76.17
2018-05-27T21:31:26.345Z,76.91
2018-05-27T21:33:54.369Z,77.20
2018-05-27T21:36:22.566Z,76.04
2018-05-27T21:38:50.165Z,74.32
2018-05-27T21:41:18.131Z,72.50
2018-05-27T21:43:45.655Z,74.49
2018-05-27T21:46:13.744Z,74.45
2018-05-27T21:48:41.324Z,77.09
2018-05-27T21:51:08.929Z,77.48
2018-05-27T21:53:36.712Z,80.18
2018-05-27T21:56:04.512Z,77.04
2018-05-27T21:58:32.378Z,73.86
2018-05-27T22:01:00.319Z,75.04
2018-05-27T22:03:27.917Z,75.91
2018-05-27T22:05:55.754Z,75.18
2018-05-27T22:08:23.639Z,76.98
2018-05-27T22:10:51.199Z,77.67
2018-05-27T22:13:19.181Z,78.28
2018-05-27T22:15:47.345Z,76.27
2018-05-27T22:18:15.630Z,73.79
2018-05-27T22:20:43.329Z,75.34
2018-05-27T22:23:11.514Z,75.63
2018-05-27T22:25:39.628Z,78.33
2018-05-27T22:28:07.467Z,78.85
2018-05-27T22:30:34.974Z,77.54
2018-05-27T22:33:03.023Z,75.38
2018-05-27T22:35:30.549Z,73.39
2018-05-27T22:37:58.780Z,72.88
2018-05-27T22:40:26.603Z,75.82
2018-05-27T22:42:54.256Z,75.74
2018-05-27T22:45:22.161Z,76.48
2018-05-27T22:47:49.937Z,78.54
2018-05-27T22:50:17.481Z,77.69
2018-05-27T22:52:47.490Z,77.13
2018-05-27T22:55:15.017Z,78.14
2018-05-27T22:57:42.597Z,78.38
2018-05-27T23:00:10.198Z,78.50
2018-05-27T23:02:37.826Z,77.48
2018-05-27T23:05:05.344Z,77.88
2018-05-27T23:07:33.016Z,81.19
2018-05-27T23:10:00.610Z,79.16
2018-05-27T23:12:28.154Z,78.28
2018-05-27T23:14:55.684Z,78.53
2018-05-27T23:17:23.262Z,78.73
2018-05-27T23:19:50.791Z,77.59
2018-05-27T23:22:18.494Z,80.45
2018-05-27T23:24:46.074Z,80.55
2018-05-27T23:27:13.744Z,80.00
2018-05-27T23:29:41.315Z,80.12
2018-05-27T23:32:08.850Z,82.12
2018-05-27T23:34:36.425Z,81.44
2018-05-27T23:37:03.951Z,80.64
2018-05-27T23:39:31.529Z,80.08
2018-05-27T23:41:59.056Z,79.62
2018-05-27T23:44:26.612Z,79.71
2018-05-27T23:46:54.205Z,80.50
2018-05-27T23:49:21.767Z,81.17
2018-05-27T23:51:49.285Z,80.90
2018-05-27T23:54:16.886Z,80.79
2018-05-27T23:56:44.416Z,81.16
2018-05-27T23:59:11.973Z,81.23
